Pagina principale
METAR-TAF:

METAR-TAF

Aeroporti :

Maradi, Niger

latitudine: 13-28N, longitudine: 007-05E, altezza: 372 m

Osservazione

Il bollettino è stato emesso 9 ore e 19 minuti fa, alle 18:00 UTC
Vento 16 kt da est/nord-est
Temperature 31°C
Umidità 9%
Pressione 1014 hPa
Visibilità: 1500 m
Scaccia polvere alto

METAR: DRRM 231800Z 06016KT 1500 BLDU NSC 31/M05 Q1014

Ora: 04:19 (03:19 UTC)


TAF: mancante

Osservazioni e previsioni meteorologiche di più di 4000 aeroporti (messaggi METAR e TAF).

Le stazioni disponibili sono rappresentate dai dischi gialli e rossi sulla carta.

Puntare il mouse per vedere il nome della stazione.

Clicca sopra per visualizzare le osservazioni e previsioni meteorologiche.

Per cambiare la mappa : fare clic sui pulsanti verdi con una croce nera per ingrandire, il pulsante verde con un trattino per diminuire, o sulla freccia verde per le mappe adiacenti.


METAR-TAF: